createdAt,value
2017-10-23T00:01:12.132Z,3.60
2017-10-23T00:03:39.675Z,3.95
2017-10-23T00:06:07.214Z,3.50
2017-10-23T00:08:34.778Z,3.35
2017-10-23T00:11:02.698Z,4.93
2017-10-23T00:13:30.329Z,4.40
2017-10-23T00:15:58.281Z,5.22
2017-10-23T00:18:25.835Z,4.72
2017-10-23T00:20:53.374Z,4.68
2017-10-23T00:23:20.929Z,4.10
2017-10-23T00:25:48.855Z,4.15
2017-10-23T00:28:16.392Z,5.47
2017-10-23T00:30:43.933Z,4.57
2017-10-23T00:33:11.865Z,4.40
2017-10-23T00:35:39.399Z,4.90
2017-10-23T00:38:07.328Z,4.62
2017-10-23T00:40:34.889Z,4.32
2017-10-23T00:43:02.414Z,4.70
2017-10-23T00:45:30.381Z,4.57
2017-10-23T00:47:58.040Z,4.60
2017-10-23T00:50:25.574Z,5.28
2017-10-23T00:52:53.126Z,5.15
2017-10-23T00:55:20.666Z,5.35
2017-10-23T00:57:48.206Z,5.85
2017-10-23T01:00:15.722Z,4.78
2017-10-23T01:02:43.667Z,4.70
2017-10-23T01:05:11.240Z,4.40
2017-10-23T01:07:38.817Z,5.68
2017-10-23T01:10:06.345Z,4.72
2017-10-23T01:12:33.870Z,4.82
2017-10-23T01:15:01.444Z,4.50
2017-10-23T01:17:28.985Z,4.65
2017-10-23T01:19:56.556Z,4.07
2017-10-23T01:22:24.074Z,4.57
2017-10-23T01:24:51.618Z,5.00
2017-10-23T01:27:19.146Z,4.37
2017-10-23T01:29:46.697Z,4.43
2017-10-23T01:32:14.712Z,3.90
2017-10-23T01:34:42.247Z,3.92
2017-10-23T01:37:10.194Z,3.50
2017-10-23T01:39:37.753Z,4.15
2017-10-23T01:42:05.294Z,4.87
2017-10-23T01:44:32.837Z,4.50
2017-10-23T01:47:00.378Z,4.07
2017-10-23T01:49:27.944Z,4.55
2017-10-23T01:51:55.520Z,4.05
2017-10-23T01:54:23.033Z,4.12
2017-10-23T01:56:50.951Z,3.58
2017-10-23T01:59:18.525Z,3.95
2017-10-23T02:01:46.067Z,4.87
2017-10-23T02:04:13.629Z,5.05
2017-10-23T02:06:41.175Z,4.68
2017-10-23T02:09:08.720Z,4.72
2017-10-23T02:11:36.256Z,4.18
2017-10-23T02:14:03.825Z,4.28
2017-10-23T02:16:31.367Z,5.30
2017-10-23T02:18:58.902Z,4.80
2017-10-23T02:21:26.441Z,4.60
2017-10-23T02:23:53.986Z,4.40
2017-10-23T02:26:21.528Z,4.45
2017-10-23T02:28:49.048Z,4.90
2017-10-23T02:31:17.031Z,4.15
2017-10-23T02:33:44.947Z,3.75
2017-10-23T02:36:12.468Z,3.58
2017-10-23T02:38:40.405Z,3.90
2017-10-23T02:41:07.955Z,3.97
2017-10-23T02:43:35.498Z,3.60
2017-10-23T02:46:03.031Z,4.15
2017-10-23T02:48:30.579Z,3.65
2017-10-23T02:50:58.112Z,4.10
2017-10-23T02:53:25.676Z,3.87
2017-10-23T02:55:53.604Z,3.87
2017-10-23T02:58:21.129Z,4.30
2017-10-23T03:00:49.078Z,3.72
2017-10-23T03:03:16.613Z,4.22
2017-10-23T03:05:44.161Z,4.72
2017-10-23T03:08:12.077Z,4.37
2017-10-23T03:10:39.620Z,4.82
2017-10-23T03:13:07.152Z,4.22
2017-10-23T03:15:34.680Z,4.30
2017-10-23T03:18:02.225Z,4.53
2017-10-23T03:20:30.143Z,4.70
2017-10-23T03:22:57.683Z,4.90
2017-10-23T03:25:25.205Z,4.90
2017-10-23T03:27:52.774Z,5.60
2017-10-23T03:30:20.294Z,5.47
2017-10-23T03:32:47.827Z,5.55
2017-10-23T03:35:15.369Z,5.20
2017-10-23T03:37:42.903Z,5.15
2017-10-23T03:40:10.843Z,5.60
2017-10-23T03:42:38.384Z,5.37
2017-10-23T03:45:05.925Z,5.07
2017-10-23T03:47:33.836Z,4.78
2017-10-23T03:50:01.401Z,5.15
2017-10-23T03:52:28.943Z,4.22
2017-10-23T03:54:56.868Z,4.95
2017-10-23T03:57:24.445Z,4.40
2017-10-23T03:59:51.973Z,3.90
2017-10-23T04:02:19.914Z,4.20
2017-10-23T04:04:47.439Z,3.95
2017-10-23T04:07:15.006Z,3.67
2017-10-23T04:09:42.535Z,4.50
2017-10-23T04:12:10.108Z,4.20
2017-10-23T04:14:37.649Z,3.83
2017-10-23T04:17:05.170Z,3.60
2017-10-23T04:19:32.720Z,4.35
2017-10-23T04:22:00.243Z,3.75
2017-10-23T04:24:27.791Z,4.30
2017-10-23T04:26:55.318Z,4.10
2017-10-23T04:29:22.853Z,3.65
2017-10-23T04:31:50.414Z,3.58
2017-10-23T04:34:18.340Z,3.95
2017-10-23T04:36:45.880Z,3.60
2017-10-23T04:39:13.400Z,3.25
2017-10-23T04:41:40.964Z,3.87
2017-10-23T04:44:08.499Z,4.10
2017-10-23T04:46:36.014Z,4.30
2017-10-23T04:49:03.988Z,4.85
2017-10-23T04:51:31.526Z,4.03
2017-10-23T04:53:59.063Z,4.32
2017-10-23T04:56:26.995Z,3.80
2017-10-23T04:58:54.538Z,3.90
2017-10-23T05:01:22.107Z,3.87
2017-10-23T05:03:49.662Z,3.53
2017-10-23T05:06:17.198Z,3.42
2017-10-23T05:08:44.732Z,3.40
2017-10-23T05:11:12.278Z,2.80
2017-10-23T05:13:40.201Z,2.85
2017-10-23T05:16:07.744Z,3.40
2017-10-23T05:18:35.276Z,3.20
2017-10-23T05:21:02.824Z,3.15
2017-10-23T05:23:30.332Z,3.00
2017-10-23T05:25:57.885Z,3.47
2017-10-23T05:28:25.399Z,2.90
2017-10-23T05:30:52.982Z,3.47
2017-10-23T05:33:20.525Z,3.37
2017-10-23T05:35:48.449Z,3.97
2017-10-23T05:38:15.998Z,3.30
2017-10-23T05:40:43.538Z,2.97
2017-10-23T05:43:11.485Z,3.92
2017-10-23T05:45:39.014Z,2.78
2017-10-23T05:48:06.577Z,3.03
2017-10-23T05:50:34.497Z,3.05
2017-10-23T05:53:02.062Z,3.80
2017-10-23T05:55:29.623Z,3.28
2017-10-23T05:57:57.149Z,3.42
2017-10-23T06:00:24.689Z,2.92
2017-10-23T06:02:52.224Z,2.75
2017-10-23T06:05:19.764Z,3.00
2017-10-23T06:07:47.317Z,3.17
2017-10-23T06:10:14.855Z,3.17
2017-10-23T06:12:42.434Z,3.35
2017-10-23T06:15:09.956Z,3.30
2017-10-23T06:17:37.493Z,3.65
2017-10-23T06:20:05.043Z,4.40
2017-10-23T06:22:32.596Z,3.30
2017-10-23T06:25:00.149Z,3.62
2017-10-23T06:27:28.114Z,3.70
2017-10-23T06:29:55.648Z,3.75
2017-10-23T06:32:23.220Z,4.20
2017-10-23T06:34:50.780Z,3.37
2017-10-23T06:37:18.321Z,3.30
2017-10-23T06:39:45.861Z,3.12
2017-10-23T06:42:13.395Z,5.35
2017-10-23T06:44:40.962Z,4.15
2017-10-23T06:47:08.513Z,3.95
2017-10-23T06:49:36.075Z,3.62
2017-10-23T06:52:03.660Z,3.65
2017-10-23T06:54:31.278Z,4.28
2017-10-23T06:56:58.819Z,4.00
2017-10-23T06:59:26.357Z,4.50
2017-10-23T07:01:54.313Z,4.82
2017-10-23T07:04:21.874Z,4.70
2017-10-23T07:06:49.408Z,5.40
2017-10-23T07:09:16.965Z,4.82
2017-10-23T07:11:44.899Z,5.55
2017-10-23T07:14:12.445Z,5.03
2017-10-23T07:16:39.975Z,5.03
2017-10-23T07:19:07.549Z,6.12
2017-10-23T07:21:35.110Z,5.72
2017-10-23T07:24:02.651Z,6.47
2017-10-23T07:26:31.127Z,5.93
2017-10-23T07:28:58.712Z,5.85
2017-10-23T07:31:26.260Z,5.90
2017-10-23T07:33:53.801Z,5.65
2017-10-23T07:36:21.349Z,5.93
2017-10-23T07:38:48.891Z,5.72
2017-10-23T07:41:16.449Z,4.65
2017-10-23T07:43:43.994Z,5.20
2017-10-23T07:46:11.938Z,6.05
2017-10-23T07:48:39.469Z,6.32
2017-10-23T07:51:07.002Z,5.62
2017-10-23T07:53:34.536Z,5.47
2017-10-23T07:56:02.101Z,5.60
2017-10-23T07:58:29.634Z,6.55
2017-10-23T08:00:57.604Z,6.28
2017-10-23T08:03:25.181Z,4.78
2017-10-23T08:05:52.755Z,6.28
2017-10-23T08:08:20.277Z,5.18
2017-10-23T08:10:47.806Z,5.50
2017-10-23T08:13:15.409Z,4.60
2017-10-23T08:15:42.946Z,5.18
2017-10-23T08:18:10.485Z,4.70
2017-10-23T08:20:38.011Z,4.10
2017-10-23T08:23:05.577Z,4.40
2017-10-23T08:25:33.502Z,4.07
2017-10-23T08:28:01.033Z,4.57
2017-10-23T08:30:28.561Z,4.15
2017-10-23T08:32:56.116Z,5.22
2017-10-23T08:35:23.693Z,4.10
2017-10-23T08:37:51.254Z,4.70
2017-10-23T08:40:18.820Z,4.22
2017-10-23T08:42:47.204Z,4.75
2017-10-23T08:45:14.743Z,4.32
2017-10-23T08:47:42.690Z,4.25
2017-10-23T08:50:10.213Z,3.95
2017-10-23T08:52:37.749Z,4.37
2017-10-23T08:55:05.300Z,3.60
2017-10-23T08:57:32.866Z,4.60
2017-10-23T09:00:00.427Z,4.82
2017-10-23T09:02:27.987Z,5.15
2017-10-23T09:04:55.540Z,4.10
2017-10-23T09:07:23.086Z,4.32
2017-10-23T09:09:50.633Z,5.10
2017-10-23T09:12:18.157Z,4.62
2017-10-23T09:14:45.697Z,3.95
2017-10-23T09:17:13.628Z,3.62
2017-10-23T09:19:41.176Z,4.22
2017-10-23T09:22:08.700Z,4.05
2017-10-23T09:24:36.245Z,3.70
2017-10-23T09:27:03.778Z,4.00
2017-10-23T09:29:31.343Z,4.18
2017-10-23T09:31:58.898Z,3.15
2017-10-23T09:34:26.863Z,4.10
2017-10-23T09:36:54.385Z,3.37
2017-10-23T09:39:21.945Z,3.65
2017-10-23T09:41:49.866Z,3.92
2017-10-23T09:44:17.425Z,3.42
2017-10-23T09:46:44.977Z,3.53
2017-10-23T09:49:12.578Z,3.33
2017-10-23T09:51:40.138Z,3.35
2017-10-23T09:54:07.694Z,4.05
2017-10-23T09:56:35.240Z,3.15
2017-10-23T09:59:02.778Z,3.90
2017-10-23T10:01:30.328Z,4.37
2017-10-23T10:03:57.888Z,3.87
2017-10-23T10:06:25.439Z,3.25
2017-10-23T10:08:52.988Z,2.62
2017-10-23T10:11:20.539Z,3.60
2017-10-23T10:13:48.085Z,3.90
2017-10-23T10:16:15.627Z,3.75
2017-10-23T10:18:43.182Z,4.60
2017-10-23T10:21:10.735Z,4.10
2017-10-23T10:23:38.265Z,3.95
2017-10-23T10:26:05.837Z,3.80
2017-10-23T10:28:33.374Z,4.10
2017-10-23T10:31:01.322Z,4.10
2017-10-23T10:33:28.850Z,4.22
2017-10-23T10:35:56.407Z,3.92
2017-10-23T10:38:24.328Z,4.45
2017-10-23T10:40:51.873Z,5.97
2017-10-23T10:43:19.423Z,5.72
2017-10-23T10:45:47.356Z,4.40
2017-10-23T10:48:14.912Z,3.83
2017-10-23T10:50:42.453Z,4.90
2017-10-23T10:53:10.454Z,5.10
2017-10-23T10:55:37.996Z,5.07
2017-10-23T10:58:05.944Z,4.65
2017-10-23T11:00:33.485Z,5.40
2017-10-23T11:03:01.035Z,5.68
2017-10-23T11:05:28.580Z,5.60
2017-10-23T11:07:56.151Z,5.35
2017-10-23T11:10:23.692Z,5.30
2017-10-23T11:12:51.237Z,5.43
2017-10-23T11:15:18.779Z,6.00
2017-10-23T11:17:46.742Z,5.47
2017-10-23T11:20:14.269Z,5.65
2017-10-23T11:22:41.838Z,6.37
2017-10-23T11:25:09.382Z,6.25
2017-10-23T11:27:36.944Z,5.47
2017-10-23T11:30:04.873Z,6.07
2017-10-23T11:32:32.423Z,5.72
2017-10-23T11:34:59.981Z,7.50
2017-10-23T11:37:27.528Z,6.40
2017-10-23T11:39:55.507Z,6.35
2017-10-23T11:42:23.032Z,5.70
2017-10-23T11:44:50.579Z,5.60
2017-10-23T11:47:18.133Z,6.78
2017-10-23T11:49:46.117Z,6.70
2017-10-23T11:52:14.054Z,5.05
2017-10-23T11:54:41.601Z,5.47
2017-10-23T11:57:09.150Z,5.40
2017-10-23T11:59:37.106Z,6.75
2017-10-23T12:02:04.646Z,5.60
2017-10-23T12:04:32.197Z,6.07
2017-10-23T12:06:59.719Z,5.32
2017-10-23T12:09:27.287Z,5.00
2017-10-23T12:11:54.829Z,5.70
2017-10-23T12:14:22.390Z,4.80
2017-10-23T12:16:49.917Z,5.53
2017-10-23T12:19:17.509Z,5.53
2017-10-23T12:21:45.047Z,4.90
2017-10-23T12:24:12.585Z,5.32
2017-10-23T12:26:40.164Z,5.82
2017-10-23T12:29:07.698Z,5.15
2017-10-23T12:31:35.255Z,5.43
2017-10-23T12:34:03.182Z,5.57
2017-10-23T12:36:30.737Z,5.37
2017-10-23T12:38:58.279Z,5.72
2017-10-23T12:41:26.226Z,5.55
2017-10-23T12:43:53.772Z,5.37
2017-10-23T12:46:21.315Z,5.45
2017-10-23T12:48:48.854Z,6.20
2017-10-23T12:51:16.398Z,6.03
2017-10-23T12:53:43.947Z,6.60
2017-10-23T12:56:11.501Z,6.28
2017-10-23T12:58:39.025Z,7.00
2017-10-23T13:01:06.568Z,6.50
2017-10-23T13:03:34.102Z,6.97
2017-10-23T13:06:02.071Z,5.72
2017-10-23T13:08:29.997Z,5.90
2017-10-23T13:10:57.589Z,7.03
2017-10-23T13:13:25.123Z,5.95
2017-10-23T13:15:52.657Z,5.45
2017-10-23T13:18:20.209Z,6.07
2017-10-23T13:20:47.741Z,6.37
2017-10-23T13:23:15.297Z,6.00
2017-10-23T13:25:42.840Z,5.82
2017-10-23T13:28:10.430Z,5.90
2017-10-23T13:30:38.363Z,5.60
2017-10-23T13:33:05.917Z,5.80
2017-10-23T13:35:33.457Z,5.43
2017-10-23T13:38:01.411Z,5.32
2017-10-23T13:40:28.950Z,5.32
2017-10-23T13:42:56.523Z,4.78
2017-10-23T13:45:24.060Z,5.00
2017-10-23T13:47:51.760Z,5.03
2017-10-23T13:50:19.297Z,4.80
2017-10-23T13:52:47.250Z,5.22
2017-10-23T13:55:14.791Z,5.20
2017-10-23T13:57:42.361Z,4.90
2017-10-23T14:00:09.898Z,5.03
2017-10-23T14:02:37.477Z,5.30
2017-10-23T14:05:05.015Z,4.55
2017-10-23T14:07:32.559Z,4.78
2017-10-23T14:10:00.121Z,4.37
2017-10-23T14:12:27.662Z,4.87
2017-10-23T14:14:55.615Z,5.00
2017-10-23T14:17:23.148Z,4.25
2017-10-23T14:19:50.707Z,4.60
2017-10-23T14:22:18.243Z,4.05
2017-10-23T14:24:46.204Z,5.00
2017-10-23T14:27:13.739Z,3.90
2017-10-23T14:29:41.302Z,4.20
2017-10-23T14:32:08.846Z,4.25
2017-10-23T14:34:36.801Z,4.37
2017-10-23T14:37:04.343Z,4.00
2017-10-23T14:39:31.896Z,3.85
2017-10-23T14:41:59.433Z,4.62
2017-10-23T14:44:26.986Z,3.97
2017-10-23T14:46:54.526Z,4.15
2017-10-23T14:49:22.107Z,4.12
2017-10-23T14:51:49.658Z,4.00
2017-10-23T14:54:17.221Z,3.35
2017-10-23T14:56:44.783Z,4.50
2017-10-23T14:59:12.320Z,4.82
2017-10-23T15:01:39.889Z,5.20
2017-10-23T15:04:07.428Z,4.03
2017-10-23T15:06:34.987Z,4.90
2017-10-23T15:09:02.513Z,4.60
2017-10-23T15:11:30.071Z,4.45
2017-10-23T15:13:57.611Z,3.70
2017-10-23T15:16:25.175Z,4.03
2017-10-23T15:18:52.711Z,3.80
2017-10-23T15:21:25.892Z,4.28
2017-10-23T15:23:53.432Z,5.43
2017-10-23T15:26:20.996Z,3.92
2017-10-23T15:28:48.545Z,4.40
2017-10-23T15:31:16.101Z,4.32
2017-10-23T15:33:44.039Z,3.80
2017-10-23T15:36:11.608Z,4.07
2017-10-23T15:38:39.140Z,5.00
2017-10-23T15:41:06.818Z,4.20
2017-10-23T15:43:34.356Z,3.85
2017-10-23T15:46:01.888Z,3.55
2017-10-23T15:48:29.459Z,4.50
2017-10-23T15:50:56.996Z,4.13
2017-10-23T15:53:24.551Z,4.47
2017-10-23T15:55:52.489Z,3.92
2017-10-23T15:58:20.063Z,3.90
2017-10-23T16:00:47.604Z,4.90
2017-10-23T16:03:15.161Z,4.12
2017-10-23T16:05:42.716Z,4.47
2017-10-23T16:08:10.702Z,4.82
2017-10-23T16:10:38.644Z,3.80
2017-10-23T16:13:06.206Z,4.03
2017-10-23T16:15:33.758Z,3.72
2017-10-23T16:18:01.490Z,4.18
2017-10-23T16:20:29.043Z,3.95
2017-10-23T16:22:56.598Z,3.92
2017-10-23T16:25:24.154Z,4.78
2017-10-23T16:27:51.725Z,3.95
2017-10-23T16:30:19.287Z,4.00
2017-10-23T16:32:47.597Z,5.77
2017-10-23T16:35:15.148Z,6.10
2017-10-23T16:37:42.699Z,6.62
2017-10-23T16:40:10.656Z,7.87
2017-10-23T16:42:38.288Z,7.10
2017-10-23T16:45:05.854Z,5.80
2017-10-23T16:47:33.405Z,4.50
2017-10-23T16:50:01.397Z,4.62
2017-10-23T16:52:28.945Z,4.57
2017-10-23T16:54:56.891Z,4.40
2017-10-23T16:57:24.432Z,5.53
2017-10-23T16:59:52.000Z,4.53
2017-10-23T17:02:19.526Z,5.68
2017-10-23T17:04:47.078Z,6.00
2017-10-23T17:07:14.636Z,5.03
2017-10-23T17:09:42.192Z,5.07
2017-10-23T17:12:14.636Z,5.68
2017-10-23T17:14:42.199Z,6.22
2017-10-23T17:17:09.734Z,6.57
2017-10-23T17:19:37.305Z,5.40
2017-10-23T17:22:04.852Z,6.62
2017-10-23T17:24:32.413Z,8.20
2017-10-23T17:27:00.371Z,8.52
2017-10-23T17:29:28.315Z,8.02
2017-10-23T17:31:55.880Z,7.03
2017-10-23T17:34:23.484Z,6.55
2017-10-23T17:36:51.038Z,5.55
2017-10-23T17:39:18.590Z,6.22
2017-10-23T17:41:46.179Z,6.50
2017-10-23T17:44:13.724Z,6.43
2017-10-23T17:46:41.265Z,7.10
2017-10-23T17:49:09.201Z,5.72
2017-10-23T17:51:36.745Z,6.18
2017-10-23T17:54:04.309Z,6.10
2017-10-23T17:56:32.119Z,5.82
2017-10-23T17:58:59.682Z,6.30
2017-10-23T18:01:27.229Z,7.70
2017-10-23T18:03:54.767Z,6.80
2017-10-23T18:06:22.314Z,6.40
2017-10-23T18:08:49.873Z,7.80
2017-10-23T18:11:17.439Z,6.50
2017-10-23T18:13:44.972Z,7.80
2017-10-23T18:16:12.506Z,8.00
2017-10-23T18:18:40.048Z,6.65
2017-10-23T18:21:07.594Z,7.57
2017-10-23T18:23:35.148Z,7.68
2017-10-23T18:26:02.677Z,7.35
2017-10-23T18:28:30.235Z,8.73
2017-10-23T18:30:57.784Z,9.50
2017-10-23T18:33:25.363Z,8.02
2017-10-23T18:35:52.902Z,7.87
2017-10-23T18:38:20.454Z,7.65
2017-10-23T18:40:47.994Z,7.90
2017-10-23T18:43:15.560Z,8.20
2017-10-23T18:45:43.105Z,8.68
2017-10-23T18:48:11.065Z,7.50
2017-10-23T18:50:38.615Z,8.82
2017-10-23T18:53:06.162Z,8.73
2017-10-23T18:55:33.700Z,8.25
2017-10-23T18:58:01.258Z,8.35
2017-10-23T19:00:29.259Z,9.55
2017-10-23T19:02:57.231Z,11.40
2017-10-23T19:05:24.793Z,10.35
2017-10-23T19:07:52.334Z,10.52
2017-10-23T19:10:19.898Z,9.32
2017-10-23T19:12:47.459Z,9.73
2017-10-23T19:15:15.068Z,8.80
2017-10-23T19:17:42.619Z,8.75
2017-10-23T19:20:10.185Z,10.15
2017-10-23T19:22:37.730Z,10.50
2017-10-23T19:25:05.299Z,10.55
2017-10-23T19:27:32.864Z,10.90
2017-10-23T19:30:00.423Z,10.55
2017-10-23T19:32:28.362Z,10.75
2017-10-23T19:34:55.948Z,10.55
2017-10-23T19:37:23.923Z,10.88
2017-10-23T19:39:51.482Z,9.30
2017-10-23T19:42:19.047Z,9.93
2017-10-23T19:44:46.607Z,9.68
2017-10-23T19:47:14.143Z,9.88
2017-10-23T19:49:41.735Z,10.30
2017-10-23T19:52:09.286Z,10.02
2017-10-23T19:54:37.265Z,9.60
2017-10-23T19:57:04.801Z,10.05
2017-10-23T19:59:32.338Z,10.25
2017-10-23T20:01:59.890Z,10.90
2017-10-23T20:04:27.824Z,10.63
2017-10-23T20:06:55.365Z,9.98
2017-10-23T20:09:22.901Z,9.73
2017-10-23T20:11:50.466Z,11.18
2017-10-23T20:14:18.008Z,10.45
2017-10-23T20:16:45.589Z,11.35
2017-10-23T20:19:13.120Z,11.60
2017-10-23T20:21:40.678Z,10.45
2017-10-23T20:24:08.618Z,10.73
2017-10-23T20:26:36.183Z,10.80
2017-10-23T20:29:03.738Z,10.40
2017-10-23T20:31:31.325Z,9.98
2017-10-23T20:33:58.880Z,10.10
2017-10-23T20:36:26.452Z,10.75
2017-10-23T20:38:54.072Z,9.93
2017-10-23T20:41:21.606Z,11.32
2017-10-23T20:43:49.289Z,10.23
2017-10-23T20:46:16.827Z,10.50
2017-10-23T20:48:44.409Z,9.00
2017-10-23T20:51:11.976Z,10.30
2017-10-23T20:53:39.539Z,9.93
2017-10-23T20:56:07.068Z,9.85
2017-10-23T20:58:34.602Z,9.00
2017-10-23T21:01:02.154Z,9.48
2017-10-23T21:03:29.693Z,8.38
2017-10-23T21:05:57.275Z,9.45
2017-10-23T21:08:25.213Z,8.52
2017-10-23T21:10:52.769Z,9.25
2017-10-23T21:13:20.310Z,9.65
2017-10-23T21:15:47.912Z,10.60
2017-10-23T21:18:15.438Z,9.50
2017-10-23T21:20:43.055Z,10.77
2017-10-23T21:23:10.589Z,9.70
2017-10-23T21:25:38.122Z,9.63
2017-10-23T21:28:05.693Z,10.13
2017-10-23T21:30:33.228Z,10.65
2017-10-23T21:33:00.782Z,9.77
2017-10-23T21:35:28.705Z,10.80
2017-10-23T21:37:56.274Z,11.88
2017-10-23T21:40:23.809Z,10.30
2017-10-23T21:42:51.378Z,11.05
2017-10-23T21:45:18.938Z,10.45
2017-10-23T21:50:46.095Z,10.38
2017-10-23T21:53:13.669Z,9.43
2017-10-23T21:55:41.254Z,8.60
2017-10-23T21:58:08.804Z,9.00
2017-10-23T22:00:36.359Z,9.07
2017-10-23T22:03:03.908Z,8.95
2017-10-23T22:05:31.462Z,8.20
2017-10-23T22:07:59.400Z,7.93
2017-10-23T22:10:26.954Z,8.20
2017-10-23T22:12:54.498Z,7.03
2017-10-23T22:15:22.472Z,8.63
2017-10-23T22:17:50.418Z,7.45
2017-10-23T22:20:17.952Z,7.97
2017-10-23T22:22:45.524Z,6.97
2017-10-23T22:25:13.054Z,7.15
2017-10-23T22:27:40.621Z,6.57
2017-10-23T22:30:08.185Z,7.78
2017-10-23T22:32:35.751Z,7.57
2017-10-23T22:35:03.281Z,7.80
2017-10-23T22:37:30.849Z,7.40
2017-10-23T22:39:58.389Z,8.18
2017-10-23T22:42:25.929Z,7.43
2017-10-23T22:44:53.484Z,8.30
2017-10-23T22:47:21.020Z,8.65
2017-10-23T22:49:48.972Z,8.57
2017-10-23T22:52:16.506Z,8.02
2017-10-23T22:54:44.088Z,7.47
2017-10-23T22:57:11.622Z,7.87
2017-10-23T22:59:39.590Z,8.82
2017-10-23T23:02:07.159Z,7.65
2017-10-23T23:04:34.749Z,7.65
2017-10-23T23:07:02.294Z,6.87
2017-10-23T23:09:29.842Z,7.62
2017-10-23T23:11:57.411Z,7.22
2017-10-23T23:14:24.948Z,7.95
2017-10-23T23:16:52.530Z,7.47
2017-10-23T23:19:20.079Z,6.37
2017-10-23T23:21:48.036Z,8.15
2017-10-23T23:24:15.572Z,7.53
2017-10-23T23:26:43.153Z,8.18
2017-10-23T23:29:10.713Z,7.80
2017-10-23T23:31:38.307Z,7.70
2017-10-23T23:34:05.860Z,7.12
2017-10-23T23:36:33.405Z,7.20
2017-10-23T23:39:00.975Z,7.10
2017-10-23T23:41:28.517Z,7.22
2017-10-23T23:43:56.483Z,7.65
2017-10-23T23:46:24.021Z,7.78
2017-10-23T23:48:51.583Z,8.02
2017-10-23T23:51:19.117Z,8.10
2017-10-23T23:53:47.094Z,8.00
2017-10-23T23:56:14.642Z,7.03
2017-10-23T23:58:42.180Z,7.55
